Time;durP1;ratioP1;P1;durP2;ratioP2;P2;SDS_P1;SDS_P2;PMS_P1;PMS_P2;Temp;Humidity;BMP_temperature;BMP_pressure;BME280_temperature;BME280_humidity;BME280_pressure;Samples;Min_cycle;Max_cycle;Signal;HPM_P1;HPM_P2
2023/01/25 00:11:19;;;;;;;33.13;20.88;;;0.70;99.90;;;;;;5039541;28;20057;-61
2023/01/25 00:13:45;;;;;;;33.67;22.08;;;0.70;99.90;;;;;;5033665;28;20047;-61
2023/01/25 00:16:11;;;;;;;35.05;22.30;;;0.70;99.90;;;;;;5024875;28;20091;-62
2023/01/25 00:18:37;;;;;;;34.15;21.63;;;0.70;99.90;;;;;;5010294;28;20040;-62
2023/01/25 00:21:17;;;;;;;31.02;20.88;;;0.70;99.90;;;;;;5045261;28;20045;-61
2023/01/25 00:23:43;;;;;;;33.53;21.77;;;0.60;99.90;;;;;;5021644;28;20053;-60
2023/01/25 00:26:09;;;;;;;34.20;22.90;;;0.60;99.90;;;;;;5045977;28;20041;-61
2023/01/25 00:28:35;;;;;;;35.17;21.65;;;0.60;99.90;;;;;;5025647;28;20041;-61
2023/01/25 00:31:06;;;;;;;34.47;21.73;;;0.70;99.90;;;;;;5028041;28;20059;-62
2023/01/25 00:33:55;;;;;;;34.83;20.83;;;0.60;99.90;;;;;;5047662;28;20037;-60
2023/01/25 00:36:36;;;;;;;31.77;21.02;;;0.60;99.90;;;;;;5043326;28;20510;-61
2023/01/25 00:39:03;;;;;;;34.90;21.13;;;0.60;99.90;;;;;;5036577;28;20045;-61
2023/01/25 00:41:29;;;;;;;35.90;23.08;;;0.60;99.90;;;;;;5044458;28;20041;-61
2023/01/25 00:43:55;;;;;;;35.28;22.20;;;0.60;99.90;;;;;;5025925;28;20041;-61
2023/01/25 00:46:21;;;;;;;33.70;21.05;;;0.60;99.90;;;;;;5027358;28;20053;-61
2023/01/25 00:48:47;;;;;;;37.20;22.15;;;0.60;99.90;;;;;;5045539;28;20345;-61
2023/01/25 00:51:14;;;;;;;34.58;21.90;;;0.60;99.90;;;;;;5009851;28;20055;-61
2023/01/25 00:53:40;;;;;;;34.92;22.52;;;0.60;99.90;;;;;;5002828;28;20045;-61
2023/01/25 00:56:06;;;;;;;36.92;22.70;;;0.60;99.90;;;;;;5024760;28;20487;-62
2023/01/25 00:58:32;;;;;;;39.50;23.63;;;0.60;99.90;;;;;;5006206;28;20066;-61
2023/01/25 01:00:58;;;;;;;33.88;22.65;;;0.60;99.90;;;;;;5022613;28;20040;-61
2023/01/25 01:03:24;;;;;;;35.97;22.73;;;0.60;99.90;;;;;;5047271;28;20049;-60
2023/01/25 01:06:05;;;;;;;36.55;23.20;;;0.60;99.90;;;;;;5022370;28;20048;-61
2023/01/25 01:08:39;;;;;;;37.88;23.17;;;0.50;99.90;;;;;;5024123;28;20076;-62
2023/01/25 01:11:09;;;;;;;38.17;23.70;;;0.60;99.90;;;;;;5026537;28;20128;-61
2023/01/25 01:13:35;;;;;;;41.90;24.30;;;0.50;99.90;;;;;;5025510;28;20041;-61
2023/01/25 01:16:03;;;;;;;38.00;23.70;;;0.50;99.90;;;;;;5023646;28;20114;-62
2023/01/25 01:18:33;;;;;;;37.88;23.65;;;0.50;99.90;;;;;;5042241;28;20036;-60
2023/01/25 01:20:59;;;;;;;39.10;23.67;;;0.50;99.90;;;;;;5026611;28;20442;-61
2023/01/25 01:23:26;;;;;;;41.10;24.50;;;0.50;99.90;;;;;;5028417;28;20104;-60
2023/01/25 01:25:52;;;;;;;41.55;24.15;;;0.50;99.90;;;;;;5023814;28;20055;-60
2023/01/25 01:28:19;;;;;;;38.97;23.63;;;0.50;99.90;;;;;;5024755;28;20061;-61
2023/01/25 01:30:45;;;;;;;40.55;25.13;;;0.50;99.90;;;;;;5023960;28;20651;-61
2023/01/25 01:33:11;;;;;;;38.60;23.95;;;0.40;99.90;;;;;;5043798;28;20494;-61
2023/01/25 01:35:36;;;;;;;38.80;23.55;;;0.40;99.90;;;;;;5042272;28;20435;-61
2023/01/25 01:38:02;;;;;;;39.53;23.83;;;0.40;99.90;;;;;;5022078;28;20043;-61
2023/01/25 01:40:28;;;;;;;40.85;24.30;;;0.40;99.90;;;;;;5027418;28;20037;-61
2023/01/25 01:43:05;;;;;;;39.15;24.02;;;0.40;99.90;;;;;;5027808;28;20044;-62
2023/01/25 01:46:04;;;;;;;41.55;24.55;;;0.40;99.90;;;;;;5023589;28;20052;-61
2023/01/25 01:48:35;;;;;;;37.78;23.60;;;0.40;99.90;;;;;;5013620;28;20414;-62
2023/01/25 01:51:33;;;;;;;38.33;23.60;;;0.40;99.90;;;;;;5042409;28;20053;-61
2023/01/25 01:54:08;;;;;;;38.33;24.35;;;0.40;99.90;;;;;;5010855;28;20037;-60
2023/01/25 01:56:45;;;;;;;39.28;23.20;;;0.30;99.90;;;;;;5025654;28;20049;-61
2023/01/25 01:59:11;;;;;;;40.15;23.95;;;0.30;99.90;;;;;;5023573;28;20406;-60
2023/01/25 02:01:38;;;;;;;42.53;25.15;;;0.30;99.90;;;;;;5044416;28;20627;-61
2023/01/25 02:04:06;;;;;;;37.05;22.92;;;0.30;99.90;;;;;;5026549;28;20044;-62
2023/01/25 02:06:41;;;;;;;36.78;22.85;;;0.30;99.90;;;;;;5041864;28;20080;-61
2023/01/25 02:09:07;;;;;;;41.38;23.80;;;0.30;99.90;;;;;;5040704;28;20037;-61
2023/01/25 02:11:33;;;;;;;40.63;24.67;;;0.30;99.90;;;;;;5039006;28;20064;-60
2023/01/25 02:14:00;;;;;;;41.40;23.85;;;0.30;99.90;;;;;;5022525;28;20097;-61
2023/01/25 02:16:28;;;;;;;38.80;23.17;;;0.30;99.90;;;;;;5019974;28;20049;-61
2023/01/25 02:18:56;;;;;;;38.25;23.67;;;0.30;99.90;;;;;;5018513;28;20515;-60
2023/01/25 02:21:23;;;;;;;39.42;23.92;;;0.30;99.90;;;;;;5013021;28;20099;-60
2023/01/25 02:24:19;;;;;;;39.05;23.55;;;0.20;99.90;;;;;;5008492;28;20111;-61
2023/01/25 02:26:45;;;;;;;39.83;24.05;;;0.30;99.90;;;;;;5010360;28;20049;-61
2023/01/25 02:29:12;;;;;;;44.30;25.58;;;0.20;99.90;;;;;;5021121;28;20983;-60
2023/01/25 02:31:38;;;;;;;44.88;25.98;;;0.20;99.90;;;;;;5022638;28;20406;-61
2023/01/25 02:34:04;;;;;;;43.47;25.88;;;0.20;99.90;;;;;;5022892;28;20049;-61
2023/01/25 02:36:32;;;;;;;44.83;26.27;;;0.20;99.90;;;;;;5035929;28;20051;-61
2023/01/25 02:39:06;;;;;;;43.95;26.17;;;0.20;99.90;;;;;;5020808;28;20452;-61
2023/01/25 02:41:34;;;;;;;44.80;26.35;;;0.20;99.90;;;;;;5017763;28;20045;-61
2023/01/25 02:44:07;;;;;;;44.15;27.10;;;0.20;99.90;;;;;;5019496;28;20053;-61
2023/01/25 02:46:36;;;;;;;52.13;28.80;;;0.20;99.90;;;;;;5021810;28;20116;-61
2023/01/25 02:49:04;;;;;;;50.78;28.20;;;0.20;99.90;;;;;;5022168;28;20053;-62
2023/01/25 02:51:32;;;;;;;48.70;26.70;;;0.20;99.90;;;;;;5032868;28;20040;-61
2023/01/25 02:54:00;;;;;;;45.30;27.25;;;0.20;99.90;;;;;;5024557;28;20052;-61
2023/01/25 02:56:27;;;;;;;44.92;26.65;;;0.20;99.90;;;;;;5023604;28;20487;-62
2023/01/25 02:58:53;;;;;;;45.90;27.35;;;0.20;99.90;;;;;;5001061;28;20033;-62
2023/01/25 03:01:19;;;;;;;48.60;28.85;;;0.30;99.90;;;;;;5039084;28;20505;-61
2023/01/25 03:03:45;;;;;;;53.03;29.45;;;0.20;99.90;;;;;;4991768;28;20384;-61
2023/01/25 03:09:52;;;;;;;49.75;28.08;;;0.20;99.90;;;;;;5015498;28;20068;-61
2023/01/25 03:12:18;;;;;;;54.50;30.45;;;0.20;99.90;;;;;;5015063;28;20045;-61
2023/01/25 03:14:43;;;;;;;52.78;29.15;;;0.20;99.90;;;;;;5018392;28;20060;-61
2023/01/25 03:17:09;;;;;;;55.78;31.42;;;0.20;99.90;;;;;;5025463;28;20041;-61
2023/01/25 03:19:35;;;;;;;56.55;31.13;;;0.20;99.90;;;;;;5040587;28;20048;-61
2023/01/25 03:22:01;;;;;;;57.00;31.80;;;0.20;99.90;;;;;;5024357;28;20049;-61
2023/01/25 03:24:27;;;;;;;61.95;34.88;;;0.10;99.90;;;;;;5042205;28;20453;-61
2023/01/25 03:27:17;;;;;;;67.72;35.95;;;0.20;99.90;;;;;;5025798;28;20461;-61
2023/01/25 03:29:44;;;;;;;62.05;34.60;;;0.10;99.90;;;;;;5013093;28;20073;-61
2023/01/25 03:32:10;;;;;;;65.18;34.90;;;0.10;99.90;;;;;;5024351;28;20049;-61
2023/01/25 03:34:36;;;;;;;70.07;37.65;;;0.20;99.90;;;;;;5045247;28;20083;-61
2023/01/25 03:37:02;;;;;;;77.03;39.22;;;0.20;99.90;;;;;;5046782;28;20786;-60
2023/01/25 03:39:28;;;;;;;69.18;37.05;;;0.10;99.90;;;;;;5026432;28;20406;-61
2023/01/25 03:41:54;;;;;;;68.82;37.97;;;0.20;99.90;;;;;;5043426;28;20049;-61
2023/01/25 03:44:20;;;;;;;73.50;38.00;;;0.10;99.90;;;;;;5026990;28;20071;-61
2023/01/25 03:46:45;;;;;;;72.85;37.63;;;0.10;99.90;;;;;;5029760;28;20049;-61
2023/01/25 03:49:11;;;;;;;73.03;37.53;;;0.10;99.90;;;;;;5010113;28;20076;-61
2023/01/25 03:51:37;;;;;;;68.75;35.20;;;0.10;99.90;;;;;;5024897;28;20214;-61
2023/01/25 03:54:03;;;;;;;71.43;37.42;;;0.10;99.90;;;;;;5048418;28;20099;-61
2023/01/25 03:56:30;;;;;;;71.80;37.65;;;0.10;99.90;;;;;;5029382;28;20132;-61
2023/01/25 03:58:56;;;;;;;71.43;37.13;;;0.10;99.90;;;;;;5046579;28;20494;-61
2023/01/25 04:01:22;;;;;;;68.65;36.72;;;0.10;99.90;;;;;;5028730;28;20042;-61
2023/01/25 04:03:47;;;;;;;68.82;36.28;;;0.00;99.90;;;;;;5042337;28;20118;-61
2023/01/25 04:06:13;;;;;;;65.55;35.28;;;0.00;99.90;;;;;;5029654;28;20045;-61
2023/01/25 04:08:39;;;;;;;74.43;38.03;;;0.00;99.90;;;;;;5027445;28;20045;-61
2023/01/25 04:11:08;;;;;;;73.68;38.72;;;0.00;99.90;;;;;;5044352;28;20083;-62
2023/01/25 04:13:35;;;;;;;71.10;36.95;;;0.00;99.90;;;;;;5031980;28;20052;-62
2023/01/25 04:16:02;;;;;;;73.72;37.63;;;0.00;99.90;;;;;;5019649;28;20138;-61
2023/01/25 04:18:28;;;;;;;70.32;36.90;;;0.00;99.90;;;;;;5045201;28;20033;-62
2023/01/25 04:20:55;;;;;;;71.55;38.25;;;0.00;99.90;;;;;;5026565;28;20486;-61
2023/01/25 04:23:23;;;;;;;74.22;37.85;;;-0.10;99.90;;;;;;5047744;28;20047;-60
2023/01/25 04:25:56;;;;;;;72.03;37.83;;;0.00;99.90;;;;;;5046607;28;20510;-61
2023/01/25 04:28:23;;;;;;;76.22;39.00;;;0.00;99.90;;;;;;5027538;28;20076;-61
2023/01/25 04:30:49;;;;;;;76.70;38.95;;;0.00;99.90;;;;;;5044713;28;20380;-61
2023/01/25 04:33:15;;;;;;;77.95;40.13;;;0.00;99.90;;;;;;5027106;28;20388;-61
2023/01/25 04:35:43;;;;;;;70.13;37.45;;;0.00;99.90;;;;;;5042090;28;20061;-61
2023/01/25 04:38:09;;;;;;;72.55;36.83;;;0.00;99.90;;;;;;5047083;28;20033;-62
2023/01/25 04:40:35;;;;;;;75.32;38.55;;;-0.10;99.90;;;;;;5045930;28;20049;-61
2023/01/25 04:43:01;;;;;;;75.20;38.70;;;-0.10;99.90;;;;;;5012406;28;20052;-61
2023/01/25 04:45:27;;;;;;;75.47;38.55;;;-0.10;99.90;;;;;;5027661;28;20052;-61
2023/01/25 04:47:57;;;;;;;78.25;40.28;;;-0.10;99.90;;;;;;5042507;28;20056;-61
2023/01/25 04:50:23;;;;;;;70.80;38.15;;;-0.10;99.90;;;;;;5041567;28;20124;-61
2023/01/25 04:52:49;;;;;;;75.75;38.42;;;-0.20;99.90;;;;;;5046604;28;20116;-61
2023/01/25 04:55:15;;;;;;;76.65;39.17;;;-0.20;99.90;;;;;;5026895;28;20616;-61
2023/01/25 04:57:40;;;;;;;78.90;39.63;;;-0.10;99.90;;;;;;5046366;28;20088;-60
2023/01/25 05:00:07;;;;;;;78.65;40.03;;;-0.20;99.90;;;;;;5042975;28;20127;-61
2023/01/25 05:02:33;;;;;;;78.13;39.25;;;-0.20;99.90;;;;;;5025785;28;20051;-61
2023/01/25 05:04:59;;;;;;;82.88;40.63;;;-0.20;99.90;;;;;;5043014;28;20049;-62
2023/01/25 05:07:25;;;;;;;80.70;39.97;;;-0.20;99.90;;;;;;5042468;28;20378;-61
2023/01/25 05:09:50;;;;;;;74.28;39.45;;;-0.20;99.90;;;;;;5023412;28;20060;-60
2023/01/25 05:12:16;;;;;;;82.18;41.13;;;-0.20;99.90;;;;;;5043039;28;20041;-61
2023/01/25 05:14:42;;;;;;;77.30;38.97;;;-0.20;99.90;;;;;;5041132;28;20060;-61
2023/01/25 05:17:08;;;;;;;76.57;39.42;;;-0.20;99.90;;;;;;5046056;28;20119;-61
2023/01/25 05:19:34;;;;;;;73.68;37.90;;;-0.20;99.90;;;;;;5025937;28;20041;-61
2023/01/25 05:22:01;;;;;;;73.10;38.30;;;-0.10;99.90;;;;;;5046420;28;20040;-61
2023/01/25 05:24:33;;;;;;;71.97;38.40;;;-0.20;99.90;;;;;;5045547;28;20053;-61
2023/01/25 05:26:59;;;;;;;74.88;38.30;;;-0.20;99.90;;;;;;5045371;28;20128;-61
2023/01/25 05:29:36;;;;;;;72.55;38.25;;;-0.20;99.90;;;;;;5042041;28;20529;-61
2023/01/25 05:32:17;;;;;;;73.03;38.60;;;-0.30;99.90;;;;;;5028896;28;20083;-61
2023/01/25 05:34:43;;;;;;;69.93;38.13;;;-0.20;99.90;;;;;;5026540;28;20055;-61
2023/01/25 05:37:11;;;;;;;75.72;40.03;;;-0.30;99.90;;;;;;5042652;28;20379;-61
2023/01/25 05:39:37;;;;;;;79.00;39.25;;;-0.30;99.90;;;;;;5023271;28;20040;-60
2023/01/25 05:42:07;;;;;;;73.85;38.67;;;-0.20;99.90;;;;;;5026360;28;20506;-61
2023/01/25 05:44:32;;;;;;;70.78;38.08;;;-0.20;99.90;;;;;;5027255;28;20045;-61
2023/01/25 05:47:00;;;;;;;69.57;36.83;;;-0.30;99.90;;;;;;5028962;28;20510;-62
2023/01/25 05:49:26;;;;;;;70.13;37.22;;;-0.30;99.90;;;;;;5032287;28;20036;-61
2023/01/25 05:51:51;;;;;;;68.70;38.58;;;-0.30;99.90;;;;;;5044107;28;20051;-61
2023/01/25 05:54:18;;;;;;;67.15;36.40;;;-0.30;99.90;;;;;;5025596;28;20076;-61
2023/01/25 05:56:44;;;;;;;71.13;36.72;;;-0.30;99.90;;;;;;5027657;28;20049;-61
2023/01/25 05:59:11;;;;;;;70.65;36.97;;;-0.30;99.90;;;;;;5027416;28;20138;-61
2023/01/25 06:01:37;;;;;;;67.35;35.20;;;-0.30;99.90;;;;;;5028217;28;20095;-60
2023/01/25 06:04:04;;;;;;;71.93;36.75;;;-0.30;99.90;;;;;;5041114;28;20045;-61
2023/01/25 06:06:29;;;;;;;72.30;36.35;;;-0.30;99.90;;;;;;5024338;28;20037;-61
2023/01/25 06:08:55;;;;;;;68.38;36.17;;;-0.30;99.90;;;;;;5008476;28;20044;-61
2023/01/25 06:11:23;;;;;;;71.55;37.17;;;-0.30;99.90;;;;;;5025562;28;20091;-61
2023/01/25 06:13:49;;;;;;;74.15;37.10;;;-0.30;99.90;;;;;;5025474;28;20051;-61
2023/01/25 06:16:16;;;;;;;74.25;38.05;;;-0.30;99.90;;;;;;5023355;28;20054;-61
2023/01/25 06:18:43;;;;;;;65.63;34.88;;;-0.30;99.90;;;;;;5031764;28;20106;-62
2023/01/25 06:21:09;;;;;;;72.65;38.28;;;-0.30;99.90;;;;;;5021299;28;20041;-61
2023/01/25 06:23:35;;;;;;;72.38;37.15;;;-0.30;99.90;;;;;;5038305;28;20570;-61
2023/01/25 06:26:04;;;;;;;70.32;36.38;;;-0.30;99.90;;;;;;5041323;28;20036;-61
2023/01/25 06:28:35;;;;;;;68.50;36.50;;;-0.40;99.90;;;;;;5017552;28;20045;-62
2023/01/25 06:31:15;;;;;;;68.07;34.83;;;-0.40;99.90;;;;;;5018322;28;20044;-61
2023/01/25 06:33:42;;;;;;;66.93;35.65;;;-0.40;99.90;;;;;;5036267;28;22289;-61
2023/01/25 06:36:13;;;;;;;74.68;37.55;;;-0.40;99.90;;;;;;5022855;28;20467;-60
2023/01/25 06:38:40;;;;;;;72.82;36.72;;;-0.40;99.90;;;;;;5024361;28;20049;-61
2023/01/25 06:41:08;;;;;;;69.57;35.58;;;-0.40;99.90;;;;;;5024175;28;20483;-60
2023/01/25 06:43:35;;;;;;;72.93;37.47;;;-0.40;99.90;;;;;;5036604;28;20605;-62
2023/01/25 06:46:06;;;;;;;70.85;36.40;;;-0.40;99.90;;;;;;5038178;28;20045;-61
2023/01/25 06:48:32;;;;;;;69.30;36.65;;;-0.40;99.90;;;;;;5015216;28;20068;-60
2023/01/25 06:51:07;;;;;;;68.57;35.50;;;-0.40;99.90;;;;;;5020070;28;20123;-61
2023/01/25 06:53:36;;;;;;;72.22;36.75;;;-0.40;99.90;;;;;;5042011;28;20121;-62
2023/01/25 06:56:20;;;;;;;72.63;37.13;;;-0.50;99.90;;;;;;5028740;28;20541;-61
2023/01/25 06:58:47;;;;;;;73.32;38.33;;;-0.40;99.90;;;;;;5042796;28;20037;-61
2023/01/25 07:01:25;;;;;;;72.05;37.33;;;-0.40;99.90;;;;;;5042343;28;20041;-61
2023/01/25 07:03:54;;;;;;;68.65;36.10;;;-0.40;99.90;;;;;;5035487;28;20384;-61
2023/01/25 07:06:21;;;;;;;67.88;35.67;;;-0.40;99.90;;;;;;5040296;28;20041;-61
2023/01/25 07:08:47;;;;;;;67.60;36.30;;;-0.40;99.90;;;;;;5038679;28;20663;-61
2023/01/25 07:11:13;;;;;;;69.07;36.72;;;-0.50;99.90;;;;;;5023819;28;20150;-62
2023/01/25 07:13:41;;;;;;;67.15;36.17;;;-0.50;99.90;;;;;;5018147;28;20044;-61
2023/01/25 07:16:10;;;;;;;68.72;36.38;;;-0.50;99.90;;;;;;5040262;28;20073;-61
2023/01/25 07:18:36;;;;;;;73.13;36.80;;;-0.50;99.90;;;;;;5045848;28;20072;-61
2023/01/25 07:21:06;;;;;;;67.93;35.13;;;-0.50;99.90;;;;;;5046137;28;20438;-61
2023/01/25 07:23:33;;;;;;;67.60;36.60;;;-0.40;99.90;;;;;;5026507;28;20068;-62
2023/01/25 07:25:59;;;;;;;70.97;37.85;;;-0.40;99.90;;;;;;5045445;28;20171;-61
2023/01/25 07:28:26;;;;;;;70.25;36.83;;;-0.40;99.90;;;;;;5012000;28;20114;-61
2023/01/25 07:30:52;;;;;;;72.65;37.13;;;-0.50;99.90;;;;;;5013723;28;20045;-61
2023/01/25 07:33:17;;;;;;;64.53;35.78;;;-0.40;99.90;;;;;;5026491;28;20047;-61
2023/01/25 07:35:43;;;;;;;64.25;34.92;;;-0.50;99.90;;;;;;5029806;28;20049;-61
2023/01/25 07:38:09;;;;;;;63.72;35.03;;;-0.50;99.90;;;;;;5032035;28;20081;-61
2023/01/25 07:40:35;;;;;;;69.72;36.22;;;-0.50;99.90;;;;;;5020232;28;20037;-61
2023/01/25 07:43:01;;;;;;;65.20;34.22;;;-0.50;99.90;;;;;;5023728;28;20519;-60
2023/01/25 07:45:29;;;;;;;58.92;32.40;;;-0.50;99.90;;;;;;5024100;28;20060;-62
2023/01/25 07:47:57;;;;;;;53.67;30.23;;;-0.50;99.90;;;;;;4982713;28;20041;-61
2023/01/25 07:50:25;;;;;;;58.08;31.52;;;-0.50;99.90;;;;;;5012839;28;20045;-61
2023/01/25 07:52:50;;;;;;;60.38;32.83;;;-0.60;99.90;;;;;;5020118;28;20049;-61
2023/01/25 07:55:16;;;;;;;57.50;31.63;;;-0.60;99.90;;;;;;5029100;28;20048;-61
2023/01/25 07:57:42;;;;;;;57.38;32.63;;;-0.60;99.90;;;;;;5028810;28;20076;-62
2023/01/25 08:00:09;;;;;;;58.65;31.77;;;-0.60;99.90;;;;;;5026247;28;20040;-62
2023/01/25 08:02:35;;;;;;;60.15;32.55;;;-0.60;99.90;;;;;;5003979;28;20041;-60
2023/01/25 08:05:01;;;;;;;59.40;33.60;;;-0.60;99.90;;;;;;5048043;28;20055;-61
2023/01/25 08:07:28;;;;;;;60.45;33.10;;;-0.60;99.90;;;;;;5027648;28;20049;-60
2023/01/25 08:09:54;;;;;;;60.83;33.55;;;-0.60;99.90;;;;;;5009821;28;20460;-60
2023/01/25 08:12:21;;;;;;;54.05;31.33;;;-0.60;99.90;;;;;;5046242;28;20114;-61
2023/01/25 08:14:48;;;;;;;55.08;31.70;;;-0.60;99.90;;;;;;5020567;28;20052;-62
2023/01/25 08:17:14;;;;;;;57.08;32.30;;;-0.50;99.90;;;;;;5025914;28;20075;-61
2023/01/25 08:19:40;;;;;;;58.97;32.67;;;-0.60;99.90;;;;;;5021563;28;20081;-61
2023/01/25 08:22:09;;;;;;;52.33;31.13;;;-0.50;99.90;;;;;;5043169;28;20065;-61
2023/01/25 08:24:35;;;;;;;62.28;32.53;;;-0.60;99.90;;;;;;5043830;28;20061;-61
2023/01/25 08:27:01;;;;;;;55.22;32.75;;;-0.60;99.90;;;;;;5025446;28;20426;-61
2023/01/25 08:29:26;;;;;;;62.03;32.72;;;-0.60;99.90;;;;;;5025661;28;20045;-61
2023/01/25 08:31:52;;;;;;;60.25;33.28;;;-0.60;99.90;;;;;;5022267;28;20120;-61
2023/01/25 08:34:19;;;;;;;63.60;34.20;;;-0.60;99.90;;;;;;5022032;28;20048;-61
2023/01/25 08:36:44;;;;;;;61.47;33.55;;;-0.60;99.90;;;;;;5022664;28;20037;-61
2023/01/25 08:39:11;;;;;;;62.75;34.03;;;-0.60;99.90;;;;;;5045577;28;20098;-61
2023/01/25 08:41:37;;;;;;;63.28;34.47;;;-0.60;99.90;;;;;;5029342;28;20046;-61
2023/01/25 08:44:04;;;;;;;64.60;34.03;;;-0.60;99.90;;;;;;5027062;28;20109;-61
2023/01/25 08:46:32;;;;;;;61.67;31.88;;;-0.60;99.90;;;;;;5027313;28;20047;-60
2023/01/25 08:49:00;;;;;;;59.55;33.10;;;-0.60;99.90;;;;;;5041924;28;20045;-60
2023/01/25 08:51:26;;;;;;;61.35;33.50;;;-0.60;99.90;;;;;;5023617;28;20056;-61
2023/01/25 08:53:53;;;;;;;61.58;32.92;;;-0.60;99.90;;;;;;5042077;28;20156;-61
2023/01/25 08:56:19;;;;;;;62.10;33.13;;;-0.60;99.90;;;;;;5042882;28;20047;-61
2023/01/25 08:58:46;;;;;;;60.83;32.63;;;-0.60;99.90;;;;;;5041731;28;20056;-61
2023/01/25 09:01:14;;;;;;;60.80;31.55;;;-0.60;99.90;;;;;;5043666;28;20127;-60
2023/01/25 09:03:43;;;;;;;56.13;31.45;;;-0.60;99.90;;;;;;5017270;28;20616;-61
2023/01/25 09:06:10;;;;;;;55.88;31.80;;;-0.60;99.90;;;;;;5038311;28;20063;-62
2023/01/25 09:08:39;;;;;;;61.15;32.20;;;-0.60;99.90;;;;;;5040366;28;20037;-61
2023/01/25 09:11:07;;;;;;;63.20;34.47;;;-0.60;99.90;;;;;;5044587;28;20504;-61
2023/01/25 09:13:33;;;;;;;64.38;34.13;;;-0.60;99.90;;;;;;5039909;28;20037;-61
2023/01/25 09:16:00;;;;;;;65.28;34.50;;;-0.50;99.90;;;;;;5015469;28;20388;-60
2023/01/25 09:18:27;;;;;;;65.13;33.22;;;-0.60;99.90;;;;;;5021027;28;20040;-60
2023/01/25 09:20:52;;;;;;;63.13;32.97;;;-0.60;99.90;;;;;;5021982;28;20110;-61
2023/01/25 09:23:21;;;;;;;67.00;34.38;;;-0.60;99.90;;;;;;5044232;28;20064;-61
2023/01/25 09:25:47;;;;;;;70.07;34.88;;;-0.60;99.90;;;;;;5036688;28;20053;-61
2023/01/25 09:28:13;;;;;;;67.75;34.35;;;-0.60;99.90;;;;;;5018226;28;20051;-61
2023/01/25 09:30:41;;;;;;;65.90;33.92;;;-0.60;99.90;;;;;;5038716;28;20060;-61
2023/01/25 09:33:07;;;;;;;66.78;34.13;;;-0.60;99.90;;;;;;5017100;28;20132;-61
2023/01/25 09:35:34;;;;;;;68.15;34.72;;;-0.60;99.90;;;;;;5041980;28;20095;-61
2023/01/25 09:38:00;;;;;;;70.72;35.35;;;-0.30;99.90;;;;;;5023767;28;20041;-60
2023/01/25 09:40:34;;;;;;;72.97;37.08;;;-0.60;99.90;;;;;;5039536;28;20098;-60
2023/01/25 09:43:33;;;;;;;73.47;37.58;;;-0.50;99.90;;;;;;5039563;28;20151;-61
2023/01/25 09:46:01;;;;;;;69.82;35.45;;;-0.50;99.90;;;;;;5024070;28;20080;-61
2023/01/25 09:48:38;;;;;;;68.22;34.40;;;-0.50;99.90;;;;;;5019352;28;20147;-61
2023/01/25 09:51:10;;;;;;;68.80;34.63;;;-0.50;99.90;;;;;;5025831;28;20048;-62
2023/01/25 09:53:53;;;;;;;63.45;33.53;;;-0.50;99.90;;;;;;5029333;28;20068;-61
2023/01/25 09:56:32;;;;;;;64.88;32.65;;;-0.40;99.90;;;;;;5023266;28;20045;-61
2023/01/25 09:59:14;;;;;;;70.68;35.05;;;-0.40;99.90;;;;;;5028162;28;20053;-61
2023/01/25 10:02:23;;;;;;;68.47;33.07;;;-0.40;99.90;;;;;;5041997;28;20071;-61
2023/01/25 10:04:53;;;;;;;69.88;35.22;;;-0.40;99.90;;;;;;5015354;28;20049;-61
2023/01/25 10:07:24;;;;;;;65.05;33.28;;;-0.40;99.90;;;;;;5036341;28;20130;-61
2023/01/25 10:10:23;;;;;;;69.50;33.50;;;-0.40;99.90;;;;;;5043130;28;20052;-61
2023/01/25 10:12:49;;;;;;;66.95;33.30;;;-0.30;99.90;;;;;;5044430;28;20455;-61
2023/01/25 10:15:28;;;;;;;72.30;35.78;;;-0.30;99.90;;;;;;5042636;28;20072;-61
2023/01/25 10:18:02;;;;;;;69.13;33.33;;;-0.30;99.90;;;;;;5043663;28;20045;-62
2023/01/25 10:20:35;;;;;;;70.47;33.35;;;-0.30;99.90;;;;;;5021711;28;20106;-60
2023/01/25 10:23:36;;;;;;;79.07;36.50;;;-0.20;99.90;;;;;;5036651;28;20558;-61
2023/01/25 10:26:33;;;;;;;73.32;36.17;;;-0.20;99.90;;;;;;5042933;28;20056;-61
2023/01/25 10:29:11;;;;;;;74.15;34.65;;;-0.20;99.90;;;;;;5007217;28;20522;-61
2023/01/25 10:31:45;;;;;;;69.82;34.75;;;-0.10;99.90;;;;;;5018108;28;20057;-61
2023/01/25 10:34:24;;;;;;;75.30;34.58;;;-0.20;99.90;;;;;;5013986;28;20076;-61
2023/01/25 10:36:55;;;;;;;64.97;31.25;;;-0.10;99.90;;;;;;5037410;28;20202;-61
2023/01/25 10:39:21;;;;;;;67.97;31.92;;;-0.10;99.90;;;;;;5023613;28;20118;-60
2023/01/25 10:41:52;;;;;;;68.00;32.83;;;-0.10;99.90;;;;;;5007410;28;20053;-62
2023/01/25 10:44:20;;;;;;;65.00;32.05;;;-0.10;99.90;;;;;;5008821;28;20095;-60
2023/01/25 10:46:59;;;;;;;66.60;30.90;;;0.00;99.90;;;;;;5015840;28;20053;-61
2023/01/25 10:49:36;;;;;;;69.80;32.55;;;0.00;99.90;;;;;;5022711;28;20045;-60
2023/01/25 10:52:30;;;;;;;74.40;33.65;;;0.10;99.90;;;;;;5012818;28;20068;-62
2023/01/25 10:55:18;;;;;;;75.68;33.97;;;0.10;99.90;;;;;;5039088;28;20052;-60
2023/01/25 10:57:48;;;;;;;75.63;33.30;;;0.10;99.90;;;;;;5015266;28;20402;-61
2023/01/25 11:00:33;;;;;;;71.28;32.92;;;0.20;99.90;;;;;;5040120;28;20081;-62
2023/01/25 11:02:59;;;;;;;65.38;31.70;;;0.20;99.90;;;;;;5000135;28;20048;-60
2023/01/25 11:05:34;;;;;;;72.70;33.10;;;0.20;99.90;;;;;;5034933;28;20455;-61
2023/01/25 11:08:22;;;;;;;76.45;35.20;;;0.20;99.90;;;;;;5021153;28;20060;-61
2023/01/25 11:10:48;;;;;;;77.88;34.72;;;0.20;99.90;;;;;;5038415;28;20063;-60
2023/01/25 11:13:14;;;;;;;70.95;33.28;;;0.20;99.90;;;;;;5040710;28;20044;-60
2023/01/25 11:15:43;;;;;;;69.68;32.10;;;0.20;99.90;;;;;;5019596;28;20053;-61
2023/01/25 11:18:17;;;;;;;77.35;33.40;;;0.20;99.90;;;;;;5025246;28;20037;-60
2023/01/25 11:20:43;;;;;;;74.55;32.25;;;0.20;99.90;;;;;;5041139;28;20487;-61
2023/01/25 11:23:27;;;;;;;72.10;33.22;;;0.20;99.90;;;;;;5020864;28;20055;-61
2023/01/25 11:26:09;;;;;;;75.00;32.22;;;0.20;99.90;;;;;;5003871;28;20052;-61
2023/01/25 11:28:35;;;;;;;77.25;33.70;;;0.20;99.90;;;;;;5024262;28;20045;-61
2023/01/25 11:31:00;;;;;;;85.70;35.75;;;0.20;99.90;;;;;;5018198;28;20056;-61
2023/01/25 11:33:27;;;;;;;74.72;33.15;;;0.20;99.90;;;;;;5040388;28;20104;-61
2023/01/25 11:36:21;;;;;;;75.13;32.67;;;0.20;99.90;;;;;;5018112;28;20053;-60
2023/01/25 11:39:28;;;;;;;76.15;32.85;;;0.20;99.90;;;;;;5023225;28;20048;-61
2023/01/25 11:42:15;;;;;;;77.40;33.28;;;0.30;99.90;;;;;;5021113;28;20053;-61
2023/01/25 11:44:50;;;;;;;76.10;32.05;;;0.20;99.90;;;;;;5025688;28;20049;-61
2023/01/25 11:47:54;;;;;;;87.85;34.03;;;0.30;99.90;;;;;;5008745;28;20049;-61
2023/01/25 11:50:41;;;;;;;76.10;33.85;;;0.30;99.90;;;;;;5009574;28;20495;-61
2023/01/25 11:53:35;;;;;;;74.28;33.17;;;0.30;99.90;;;;;;5022993;28;20068;-61
2023/01/25 11:56:16;;;;;;;79.57;32.13;;;0.40;99.90;;;;;;5038475;28;20045;-61
2023/01/25 11:58:42;;;;;;;77.32;32.63;;;0.40;99.90;;;;;;5026761;28;20044;-61
2023/01/25 12:01:26;;;;;;;75.85;30.85;;;0.40;99.90;;;;;;5029423;28;20175;-61
2023/01/25 12:03:59;;;;;;;72.13;30.40;;;0.40;99.90;;;;;;5028849;28;20037;-61
2023/01/25 12:06:49;;;;;;;79.90;32.05;;;0.40;99.90;;;;;;5017219;28;20114;-62
2023/01/25 12:09:59;;;;;;;76.43;31.08;;;0.40;99.90;;;;;;5030643;28;20044;-60
2023/01/25 12:12:46;;;;;;;83.45;31.80;;;0.40;99.90;;;;;;4988046;28;20048;-62
2023/01/25 12:15:42;;;;;;;79.57;31.88;;;0.40;99.90;;;;;;4999777;28;20050;-61
2023/01/25 12:18:19;;;;;;;79.57;31.77;;;0.50;99.90;;;;;;5032483;28;20091;-61
2023/01/25 12:21:04;;;;;;;77.68;30.38;;;0.50;99.90;;;;;;5025574;28;20071;-61
2023/01/25 12:24:24;;;;;;;82.40;32.10;;;0.50;99.90;;;;;;5021590;28;20079;-62
2023/01/25 12:27:27;;;;;;;88.00;32.95;;;0.40;99.90;;;;;;4983646;28;20094;-61
2023/01/25 12:30:03;;;;;;;82.65;31.45;;;0.50;99.90;;;;;;5036503;28;20037;-61
2023/01/25 12:32:57;;;;;;;78.60;30.67;;;0.40;99.90;;;;;;5024889;28;20052;-61
2023/01/25 12:35:31;;;;;;;81.03;32.50;;;0.50;99.90;;;;;;5024626;28;20049;-61
2023/01/25 12:38:11;;;;;;;83.97;31.42;;;0.50;99.90;;;;;;5042950;28;20041;-61
2023/01/25 12:40:44;;;;;;;78.88;31.60;;;0.50;99.90;;;;;;5036662;28;20045;-61
2023/01/25 12:43:20;;;;;;;80.97;31.77;;;0.50;99.90;;;;;;5007613;28;20467;-60
2023/01/25 12:45:49;;;;;;;84.43;31.08;;;0.50;99.90;;;;;;5045244;28;20264;-61
2023/01/25 12:48:35;;;;;;;80.63;31.17;;;0.50;99.90;;;;;;5045518;28;20368;-61
2023/01/25 12:51:01;;;;;;;78.68;30.00;;;0.50;99.90;;;;;;5029998;28;20151;-61
2023/01/25 12:53:42;;;;;;;78.20;31.48;;;0.60;99.90;;;;;;5026886;28;20139;-61
2023/01/25 12:56:31;;;;;;;76.85;29.60;;;0.60;99.90;;;;;;5046615;28;20045;-61
2023/01/25 12:59:15;;;;;;;75.13;30.58;;;0.60;99.90;;;;;;5045210;28;20098;-61
2023/01/25 13:02:05;;;;;;;80.80;30.90;;;0.60;99.90;;;;;;5002960;28;20041;-61
2023/01/25 13:05:22;;;;;;;84.10;29.40;;;0.60;99.90;;;;;;5026538;28;20052;-61
2023/01/25 13:07:54;;;;;;;82.25;30.50;;;0.70;99.90;;;;;;5009748;28;20399;-61